Time;durP1;ratioP1;P1;durP2;ratioP2;P2;SDS_P1;SDS_P2;PMS_P1;PMS_P2;Temp;Humidity;BMP_temperature;BMP_pressure;BME280_temperature;BME280_humidity;BME280_pressure;Samples;Min_cycle;Max_cycle;Signal;HPM_P1;HPM_P2
2023/05/19 00:00:31;;;;;;;7.05;4.35;;;;;;;16.68;60.09;100293.44;4419390;32;20129;-91
2023/05/19 00:02:59;;;;;;;10.15;5.00;;;;;;;16.73;60.10;100290.56;4394164;32;20149;-91
2023/05/19 00:05:26;;;;;;;9.40;4.43;;;;;;;16.68;60.09;100296.06;4394244;32;20123;-91
2023/05/19 00:07:52;;;;;;;6.60;4.30;;;;;;;16.57;60.09;100290.44;4394595;32;20631;-90
2023/05/19 00:10:18;;;;;;;8.13;4.03;;;;;;;16.66;60.09;100297.91;4381181;32;20105;-89
2023/05/19 00:12:43;;;;;;;6.22;3.92;;;;;;;16.60;60.09;100292.06;4393951;32;20110;-91
2023/05/19 00:15:09;;;;;;;4.82;3.33;;;;;;;16.48;60.08;100290.88;4396289;32;20364;-91
2023/05/19 00:17:37;;;;;;;8.18;3.37;;;;;;;16.46;60.07;100290.09;4394465;32;20540;-91
2023/05/19 00:20:06;;;;;;;8.77;3.55;;;;;;;16.48;60.08;100290.88;4406462;32;20102;-90
2023/05/19 00:22:31;;;;;;;5.60;3.25;;;;;;;16.41;60.08;100287.69;4394551;32;20110;-90
2023/05/19 00:24:57;;;;;;;4.07;2.85;;;;;;;16.43;60.08;100287.59;4406375;32;20440;-91
2023/05/19 00:27:22;;;;;;;4.65;2.83;;;;;;;16.35;60.07;100285.34;4394165;32;20174;-89
2023/05/19 00:29:48;;;;;;;4.22;2.47;;;;;;;16.37;60.07;100291.37;4407281;32;20375;-91
2023/05/19 00:32:14;;;;;;;7.40;2.20;;;;;;;16.34;60.07;100288.06;4419839;32;20115;-89
2023/05/19 00:34:39;;;;;;;5.18;2.60;;;;;;;16.32;60.07;100287.25;4420601;32;20182;-91
2023/05/19 00:37:05;;;;;;;4.55;2.80;;;;;;;16.28;60.06;100290.03;4420850;32;20138;-91
2023/05/19 00:39:30;;;;;;;5.47;2.58;;;;;;;16.31;60.08;100283.78;4420396;32;20116;-90
2023/05/19 00:41:56;;;;;;;4.43;2.58;;;;;;;16.25;60.07;100289.31;4408083;32;20114;-89
2023/05/19 00:44:21;;;;;;;5.30;2.70;;;;;;;16.21;60.06;100282.50;4420065;32;20106;-89
2023/05/19 00:46:46;;;;;;;5.03;2.75;;;;;;;16.32;60.07;100290.72;4407492;32;20094;-88
2023/05/19 00:49:12;;;;;;;3.85;2.33;;;;;;;16.25;60.07;100290.16;4407517;32;21801;-90
2023/05/19 00:51:37;;;;;;;4.60;2.37;;;;;;;16.08;60.05;100289.25;4420770;32;20471;-90
2023/05/19 00:54:03;;;;;;;4.20;2.53;;;;;;;16.06;60.05;100284.06;4407572;32;20102;-90
2023/05/19 00:56:28;;;;;;;4.90;2.70;;;;;;;16.03;60.05;100289.47;4420566;32;20379;-90
2023/05/19 00:58:54;;;;;;;3.12;2.72;;;;;;;16.01;60.06;100291.31;4420434;32;20098;-90
2023/05/19 01:01:20;;;;;;;6.43;2.85;;;;;;;15.93;60.04;100285.56;4407942;32;20090;-89
2023/05/19 01:03:45;;;;;;;5.07;2.78;;;;;;;16.03;60.06;100284.22;4407764;32;20149;-90
2023/05/19 01:06:11;;;;;;;3.75;2.30;;;;;;;16.03;60.05;100293.84;4420467;32;20150;-91
2023/05/19 01:08:37;;;;;;;7.30;2.37;;;;;;;15.91;60.04;100295.28;4420420;32;20098;-91
2023/05/19 01:11:06;;;;;;;7.82;3.08;;;;;;;15.84;60.04;100288.59;4407933;32;20094;-91
2023/05/19 01:13:31;;;;;;;2.75;2.30;;;;;;;15.78;60.05;100284.47;4407951;32;20209;-91
2023/05/19 01:16:07;;;;;;;4.07;2.58;;;;;;;15.76;60.04;100290.72;4420574;32;20414;-91
2023/05/19 01:19:00;;;;;;;3.33;2.80;;;;;;;15.84;60.03;100289.44;4419625;32;20094;-92
2023/05/19 01:21:47;;;;;;;3.92;2.80;;;;;;;15.84;60.04;100289.44;4420513;32;20107;-90
2023/05/19 01:24:31;;;;;;;3.22;2.17;;;;;;;15.71;60.04;100287.44;4419766;32;20482;-90
2023/05/19 01:27:28;;;;;;;3.78;3.08;;;;;;;15.61;60.03;100289.59;4420279;32;20502;-90
2023/05/19 01:30:24;;;;;;;5.85;2.30;;;;;;;15.73;60.04;100286.44;4420210;32;20404;-90
2023/05/19 01:32:52;;;;;;;5.37;2.58;;;;;;;15.76;60.04;100291.56;4420301;32;20122;-90
2023/05/19 01:35:17;;;;;;;8.68;3.30;;;;;;;15.70;60.04;100291.00;4419992;32;20110;-90
2023/05/19 01:37:44;;;;;;;4.80;2.75;;;;;;;15.62;60.03;100301.84;4420254;32;20093;-89
2023/05/19 01:40:09;;;;;;;7.20;3.20;;;;;;;15.57;60.03;100301.97;4407552;32;20086;-89
2023/05/19 01:42:38;;;;;;;4.28;2.90;;;;;;;15.51;60.02;100291.75;4420111;32;20151;-90
2023/05/19 01:45:05;;;;;;;6.80;2.67;;;;;;;15.32;60.01;100290.84;4419885;32;20121;-90
2023/05/19 01:47:33;;;;;;;3.60;2.70;;;;;;;15.17;60.00;100292.38;4420136;32;20114;-90
2023/05/19 01:49:58;;;;;;;7.20;3.10;;;;;;;15.11;60.01;100297.00;4420050;32;20085;-90
2023/05/19 01:52:23;;;;;;;6.72;3.10;;;;;;;15.08;60.00;100287.50;4420116;32;20140;-89
2023/05/19 01:54:49;;;;;;;7.55;3.17;;;;;;;15.21;60.01;100288.69;4419943;32;20106;-89
2023/05/19 01:57:59;;;;;;;5.20;3.17;;;;;;;15.12;60.01;100288.22;4419873;32;20098;-90
2023/05/19 02:00:35;;;;;;;;;;;;;;;15.09;60.00;100290.97;4418750;32;20454;-91
2023/05/19 02:03:14;;;;;;;4.75;2.65;;;;;;;15.24;60.01;100290.34;4407850;32;19993;-91
2023/05/19 02:05:51;;;;;;;3.78;2.47;;;;;;;15.14;60.00;100291.63;4419330;32;20124;-89
2023/05/19 02:08:28;;;;;;;5.10;2.87;;;;;;;14.97;60.00;100293.19;4419957;32;20105;-91
2023/05/19 02:11:03;;;;;;;4.05;2.92;;;;;;;15.18;60.01;100293.22;4408543;32;20097;-90
2023/05/19 02:13:30;;;;;;;4.00;3.00;;;;;;;15.21;60.01;100293.94;4420034;32;20120;-91
2023/05/19 02:15:56;;;;;;;5.37;2.83;;;;;;;15.29;60.01;100285.72;4420189;32;20109;-91
2023/05/19 02:18:23;;;;;;;3.90;2.78;;;;;;;15.12;60.01;100291.69;4407269;32;20097;-91
2023/05/19 02:20:51;;;;;;;6.95;3.42;;;;;;;15.14;60.00;100289.00;4419682;32;20082;-90
2023/05/19 02:23:16;;;;;;;6.85;3.47;;;;;;;15.09;60.00;100291.81;4419456;32;20169;-91
2023/05/19 02:25:42;;;;;;;7.37;3.17;;;;;;;15.03;60.01;100292.94;4419768;32;20138;-90
2023/05/19 02:28:07;;;;;;;4.40;3.17;;;;;;;14.89;59.99;100286.53;4419598;32;20125;-89
2023/05/19 02:30:33;;;;;;;4.00;2.70;;;;;;;14.69;59.98;100295.25;4419407;32;20090;-89
2023/05/19 02:32:59;;;;;;;4.03;2.95;;;;;;;14.71;59.99;100294.25;4419673;32;20397;-89
2023/05/19 02:35:24;;;;;;;4.90;3.28;;;;;;;14.76;59.99;100290.59;4406906;32;20105;-90
2023/05/19 02:37:50;;;;;;;5.85;3.58;;;;;;;14.98;60.00;100281.78;4408438;32;20173;-90
2023/05/19 02:40:16;;;;;;;4.65;3.50;;;;;;;14.96;60.00;100285.41;4421558;32;20785;-90
2023/05/19 02:42:41;;;;;;;9.63;3.45;;;;;;;14.88;60.00;100280.44;4408603;32;20104;-90
2023/05/19 02:45:07;;;;;;;6.37;3.20;;;;;;;14.80;60.00;100286.94;4421253;32;20106;-90
2023/05/19 02:47:32;;;;;;;4.68;2.97;;;;;;;14.72;59.99;100290.72;4408736;32;20122;-90
2023/05/19 02:49:58;;;;;;;5.10;2.70;;;;;;;14.66;59.98;100280.47;4421024;32;20242;-90
2023/05/19 02:52:23;;;;;;;7.75;3.25;;;;;;;14.70;59.98;100282.06;4421390;32;20135;-90
2023/05/19 02:54:49;;;;;;;4.43;2.83;;;;;;;14.63;59.98;100287.59;4408492;32;20159;-89
2023/05/19 02:57:14;;;;;;;5.25;3.30;;;;;;;14.60;59.98;100282.50;4408379;32;20189;-88
2023/05/19 02:59:41;;;;;;;8.23;3.50;;;;;;;14.63;59.97;100291.06;4421144;32;20098;-90
2023/05/19 03:02:07;;;;;;;9.88;3.00;;;;;;;14.63;59.98;100290.22;4408871;32;20102;-91
2023/05/19 03:04:40;;;;;;;4.35;2.92;;;;;;;14.64;59.98;100289.31;4421283;32;20144;-90
2023/05/19 03:07:05;;;;;;;5.87;2.92;;;;;;;14.61;59.98;100292.06;4409496;32;20110;-87
2023/05/19 03:09:31;;;;;;;5.65;3.00;;;;;;;14.65;59.98;100293.63;4395737;32;20109;-89
2023/05/19 03:12:02;;;;;;;7.87;3.10;;;;;;;14.53;59.98;100304.63;4421125;32;20479;-89
2023/05/19 03:14:28;;;;;;;6.32;2.90;;;;;;;14.57;59.98;100306.19;4420709;32;20137;-88
2023/05/19 03:16:54;;;;;;;3.87;2.83;;;;;;;14.50;59.98;100312.59;4421252;32;20743;-89
2023/05/19 03:19:20;;;;;;;4.85;3.17;;;;;;;14.48;59.97;100306.56;4421070;32;20116;-88
2023/05/19 03:21:46;;;;;;;7.35;3.00;;;;;;;14.59;59.98;100304.38;4421177;32;20179;-89
2023/05/19 03:24:12;;;;;;;3.70;2.78;;;;;;;14.58;59.98;100305.28;4421080;32;20514;-88
2023/05/19 03:26:37;;;;;;;5.57;3.47;;;;;;;14.71;59.99;100302.13;4421004;32;20101;-89
2023/05/19 03:29:02;;;;;;;4.50;3.05;;;;;;;14.63;59.97;100311.19;4420967;32;20120;-89
2023/05/19 03:31:29;;;;;;;4.85;3.20;;;;;;;14.58;59.98;100302.66;4421103;32;20144;-91
2023/05/19 03:33:56;;;;;;;10.02;2.83;;;;;;;14.60;59.98;100306.06;4421287;32;20121;-91
2023/05/19 03:36:22;;;;;;;4.57;3.03;;;;;;;14.71;59.98;100311.75;4421131;32;20145;-91
2023/05/19 03:38:47;;;;;;;6.95;3.28;;;;;;;14.70;59.98;100310.91;4408130;32;20102;-90
2023/05/19 03:41:13;;;;;;;7.70;3.45;;;;;;;14.60;59.98;100308.69;4420996;32;20117;-90
2023/05/19 03:43:38;;;;;;;6.60;3.55;;;;;;;14.55;59.97;100306.25;4420949;32;20121;-90
2023/05/19 03:46:04;;;;;;;4.75;3.17;;;;;;;14.59;59.98;100302.59;4420885;32;20418;-91
2023/05/19 03:48:29;;;;;;;8.65;3.28;;;;;;;14.55;59.97;100302.78;4420413;32;20434;-90
2023/05/19 03:50:55;;;;;;;6.87;3.62;;;;;;;14.51;59.97;100302.06;4420852;32;20435;-90
2023/05/19 03:53:20;;;;;;;4.37;2.72;;;;;;;14.55;59.97;100301.03;4407556;32;28698;-90
2023/05/19 03:55:47;;;;;;;7.12;3.40;;;;;;;14.53;59.97;100302.00;4420809;32;20158;-90
2023/05/19 03:58:13;;;;;;;4.95;2.97;;;;;;;14.65;59.98;100299.72;4420519;32;20116;-91
2023/05/19 04:00:39;;;;;;;6.03;3.05;;;;;;;14.71;59.99;100302.13;4420557;32;20166;-88
2023/05/19 04:03:24;;;;;;;5.28;3.22;;;;;;;14.64;59.98;100305.88;4408088;32;20143;-89
2023/05/19 04:05:51;;;;;;;7.37;3.75;;;;;;;14.76;59.98;100307.19;4420722;32;20506;-91
2023/05/19 04:08:16;;;;;;;6.80;3.67;;;;;;;14.91;59.99;100305.72;4420778;32;20098;-90
2023/05/19 04:10:41;;;;;;;7.68;3.50;;;;;;;14.92;60.00;100310.03;4420702;32;20162;-92
2023/05/19 04:13:07;;;;;;;6.50;3.08;;;;;;;14.86;59.99;100308.50;4421652;32;20130;-92
2023/05/19 04:15:33;;;;;;;5.28;3.78;;;;;;;15.05;60.01;100306.81;4395756;32;20137;-91
2023/05/19 04:17:58;;;;;;;5.50;3.70;;;;;;;15.11;60.01;100303.09;4420753;32;20098;-90
2023/05/19 04:20:24;;;;;;;5.65;3.53;;;;;;;15.19;60.01;100313.28;4420147;32;28061;-89
2023/05/19 04:22:49;;;;;;;4.00;3.25;;;;;;;15.34;60.02;100312.63;4408270;32;20137;-90
2023/05/19 04:25:14;;;;;;;5.62;3.67;;;;;;;15.07;60.00;100317.25;4420713;32;20137;-89
2023/05/19 04:27:40;;;;;;;6.57;4.22;;;;;;;15.11;60.01;100323.22;4407615;32;20094;-90
2023/05/19 04:30:06;;;;;;;9.60;4.18;;;;;;;15.38;60.02;100322.09;4420537;32;20447;-91
2023/05/19 04:32:31;;;;;;;6.37;3.95;;;;;;;15.41;60.02;100321.94;4408196;32;20157;-90
2023/05/19 04:34:57;;;;;;;7.95;3.45;;;;;;;15.47;60.03;100326.94;4407859;32;20135;-90
2023/05/19 04:37:24;;;;;;;5.22;3.33;;;;;;;15.71;60.04;100324.19;4421019;32;20114;-90
2023/05/19 04:39:51;;;;;;;6.90;4.00;;;;;;;15.72;60.04;100325.91;4420640;32;20106;-90
2023/05/19 04:42:18;;;;;;;8.05;3.87;;;;;;;15.79;60.04;100330.78;4420307;32;20474;-89
2023/05/19 04:44:44;;;;;;;8.13;4.05;;;;;;;15.80;60.04;100335.13;4420789;32;20156;-89
2023/05/19 04:47:09;;;;;;;11.05;4.30;;;;;;;16.03;60.06;100328.84;4420449;32;20161;-89
2023/05/19 04:49:37;;;;;;;6.05;3.90;;;;;;;16.25;60.07;100333.97;4420479;32;20093;-90
2023/05/19 04:52:06;;;;;;;5.30;3.67;;;;;;;16.53;60.08;100333.53;4420873;32;20509;-89
2023/05/19 04:54:33;;;;;;;4.03;3.30;;;;;;;16.63;60.08;100328.72;4420219;32;20114;-89
2023/05/19 04:56:59;;;;;;;7.68;3.62;;;;;;;16.69;60.09;100337.19;4407799;32;20097;-90
2023/05/19 04:59:24;;;;;;;6.87;3.75;;;;;;;16.85;60.09;100329.44;4419758;32;20086;-87
2023/05/19 05:01:50;;;;;;;5.80;3.40;;;;;;;17.09;60.11;100324.75;4420194;32;20131;-89
2023/05/19 05:04:15;;;;;;;5.82;3.62;;;;;;;17.17;60.12;100323.41;4420357;32;20159;-89
2023/05/19 05:06:46;;;;;;;6.00;4.00;;;;;;;17.19;60.12;100320.72;4407718;32;20104;-89
2023/05/19 05:09:12;;;;;;;6.12;4.03;;;;;;;17.40;60.13;100319.63;4407260;32;20379;-89
2023/05/19 05:11:38;;;;;;;7.07;3.75;;;;;;;17.54;60.13;100326.81;4407516;32;20110;-89
2023/05/19 05:14:03;;;;;;;8.57;3.58;;;;;;;17.48;60.13;100330.59;4420404;32;20118;-90
2023/05/19 05:16:29;;;;;;;5.57;3.95;;;;;;;17.43;60.12;100337.88;4407600;32;20117;-90
2023/05/19 05:18:56;;;;;;;8.00;3.85;;;;;;;17.41;60.13;100334.47;4408874;32;20087;-88
2023/05/19 05:21:22;;;;;;;5.47;3.80;;;;;;;17.63;60.14;100338.66;4420359;32;20118;-89
2023/05/19 05:23:49;;;;;;;5.40;3.70;;;;;;;17.70;60.15;100342.69;4420086;32;20114;-87
2023/05/19 05:26:18;;;;;;;4.85;3.60;;;;;;;17.72;60.14;100341.69;4406279;32;20094;-87
2023/05/19 05:28:44;;;;;;;6.47;4.03;;;;;;;17.74;60.14;100346.88;4391960;32;20141;-86
2023/05/19 05:31:09;;;;;;;10.18;3.67;;;;;;;17.60;60.14;100334.41;4412379;32;20129;-85
2023/05/19 05:33:35;;;;;;;6.12;3.62;;;;;;;17.78;60.14;100335.25;4394318;32;20151;-86
2023/05/19 05:36:00;;;;;;;6.20;3.30;;;;;;;17.84;60.15;100342.00;4381798;32;20153;-87
2023/05/19 05:38:26;;;;;;;5.90;3.42;;;;;;;17.85;60.14;100339.28;4407028;32;20409;-89
2023/05/19 05:40:51;;;;;;;6.70;3.33;;;;;;;17.94;60.16;100338.78;4394289;32;20398;-89
2023/05/19 05:43:16;;;;;;;4.18;3.22;;;;;;;17.95;60.16;100331.72;4406898;32;20126;-88
2023/05/19 05:45:42;;;;;;;5.43;3.67;;;;;;;18.08;60.17;100338.91;4394061;32;20146;-88
2023/05/19 05:48:08;;;;;;;5.53;3.67;;;;;;;18.13;60.17;100340.44;4406962;32;20098;-89
2023/05/19 05:50:33;;;;;;;6.20;3.78;;;;;;;18.33;60.18;100333.16;4394157;32;20162;-89
2023/05/19 05:52:59;;;;;;;6.28;3.95;;;;;;;18.21;60.17;100343.50;4407145;32;20401;-89
2023/05/19 05:55:25;;;;;;;6.45;3.85;;;;;;;18.15;60.16;100343.84;4394607;32;20162;-90
2023/05/19 05:57:50;;;;;;;6.45;3.78;;;;;;;18.25;60.18;100340.62;4407299;32;20115;-91
2023/05/19 06:00:17;;;;;;;8.05;3.87;;;;;;;18.31;60.17;100342.94;4391536;32;20129;-92
2023/05/19 06:02:46;;;;;;;5.55;3.80;;;;;;;18.66;60.19;100335.72;4404791;32;20160;-89
2023/05/19 06:05:24;;;;;;;5.47;3.13;;;;;;;19.06;60.21;100338.75;4404139;32;20086;-91
2023/05/19 06:07:50;;;;;;;5.62;3.53;;;;;;;19.10;60.22;100345.53;4404029;32;20159;-90
2023/05/19 06:10:15;;;;;;;5.97;3.78;;;;;;;19.22;60.22;100339.56;4403776;32;20178;-89
2023/05/19 06:12:50;;;;;;;5.80;3.90;;;;;;;19.07;60.21;100343.09;4403584;32;20158;-91
2023/05/19 06:15:16;;;;;;;4.47;3.60;;;;;;;19.00;60.20;100352.31;4403403;32;20202;-88
2023/05/19 06:17:41;;;;;;;7.15;3.75;;;;;;;19.04;60.21;100339.78;4392075;32;20484;-88
2023/05/19 06:20:10;;;;;;;5.25;3.58;;;;;;;19.09;60.21;100350.91;4391544;32;20122;-90
2023/05/19 06:22:36;;;;;;;5.28;3.78;;;;;;;19.27;60.23;100349.84;4404218;32;20124;-91
2023/05/19 06:25:02;;;;;;;8.45;3.62;;;;;;;19.28;60.23;100341.00;4403870;32;20090;-86
2023/05/19 06:27:27;;;;;;;5.12;3.67;;;;;;;19.36;60.23;100351.09;4392776;32;20138;-84
2023/05/19 06:29:53;;;;;;;6.22;3.95;;;;;;;19.26;60.23;100353.44;4403621;32;20369;-85
2023/05/19 06:32:18;;;;;;;5.28;3.58;;;;;;;19.43;60.23;100349.81;4391075;32;20144;-86
2023/05/19 06:34:44;;;;;;;8.20;3.78;;;;;;;19.30;60.22;100358.44;4392744;32;20133;-87
2023/05/19 06:37:10;;;;;;;4.55;3.35;;;;;;;19.51;60.24;100355.47;4404026;32;20090;-88
2023/05/19 06:39:36;;;;;;;6.07;3.50;;;;;;;19.62;60.25;100361.00;4403861;32;20102;-88
2023/05/19 06:42:02;;;;;;;6.30;3.87;;;;;;;19.89;60.26;100354.06;4391339;32;20105;-88
2023/05/19 06:48:37;;;;;;;;;;;;;;;;;;;;;
2023/05/19 06:51:21;;;;;;;7.00;3.20;;;;;;;20.57;60.30;100368.41;4399758;32;36156;-92
2023/05/19 06:54:26;;;;;;;;;;;;;;;;;;;;;
2023/05/19 06:57:00;;;;;;;9.30;2.42;;;;;;;20.94;60.32;100370.38;4397256;32;35822;-89
2023/05/19 07:06:28;;;;;;;3.58;2.60;;;;;;;21.58;60.35;100376.75;4351601;32;20115;-93
2023/05/19 07:08:53;;;;;;;4.75;2.80;;;;;;;22.01;60.37;100365.84;4359656;32;20496;-89
2023/05/19 07:11:18;;;;;;;3.80;2.65;;;;;;;22.00;60.37;100369.44;4347147;32;20176;-89
2023/05/19 07:13:44;;;;;;;7.12;3.20;;;;;;;22.08;60.37;100371.59;4376119;32;20094;-87
2023/05/19 07:16:09;;;;;;;5.85;2.65;;;;;;;22.12;60.38;100370.44;4403231;32;20149;-86
2023/05/19 07:18:35;;;;;;;3.70;2.58;;;;;;;22.15;60.38;100367.56;4391708;32;20082;-88
2023/05/19 07:21:06;;;;;;;6.87;2.90;;;;;;;22.00;60.36;100365.00;4390475;32;20137;-88
2023/05/19 07:24:05;;;;;;;3.70;2.45;;;;;;;22.01;60.37;100366.72;4404984;32;20110;-89
2023/05/19 07:26:34;;;;;;;5.32;2.70;;;;;;;22.39;60.39;100359.69;4404520;32;20098;-87
2023/05/19 07:28:59;;;;;;;4.10;2.92;;;;;;;22.52;60.40;100361.34;4392179;32;20094;-86
2023/05/19 07:31:25;;;;;;;5.45;3.22;;;;;;;22.59;60.40;100351.12;4393586;32;20070;-83
2023/05/19 07:33:50;;;;;;;4.25;3.10;;;;;;;22.74;60.41;100351.84;4392920;32;20141;-85
2023/05/19 07:36:15;;;;;;;3.17;2.60;;;;;;;22.84;60.41;100359.03;4404011;32;20211;-85
2023/05/19 07:38:41;;;;;;;4.53;3.22;;;;;;;22.73;60.42;100358.09;4392879;32;20090;-87
2023/05/19 07:41:06;;;;;;;4.75;3.15;;;;;;;22.48;60.40;100359.03;4403065;32;20121;-85
2023/05/19 07:43:32;;;;;;;10.82;3.65;;;;;;;22.43;60.39;100358.50;4393564;32;20505;-85
2023/05/19 07:45:57;;;;;;;3.12;2.47;;;;;;;22.40;60.39;100364.03;4393377;32;20144;-84
2023/05/19 07:48:24;;;;;;;3.37;2.78;;;;;;;22.39;60.39;100357.03;4405258;32;20345;-84
2023/05/19 07:50:50;;;;;;;3.80;2.80;;;;;;;22.45;60.40;100356.56;4394003;32;20086;-85
2023/05/19 07:53:15;;;;;;;4.30;3.17;;;;;;;22.65;60.41;100353.34;4391954;32;20099;-84
2023/05/19 07:55:41;;;;;;;6.25;2.60;;;;;;;22.68;60.41;100355.75;4393585;32;20427;-85
2023/05/19 07:58:06;;;;;;;6.00;2.50;;;;;;;22.68;60.41;100356.59;4403797;32;20173;-83
2023/05/19 08:00:31;;;;;;;5.85;3.17;;;;;;;22.92;60.42;100353.16;4404546;32;20122;-85
2023/05/19 08:02:57;;;;;;;7.12;2.75;;;;;;;23.27;60.44;100348.75;4404369;32;20166;-84
2023/05/19 08:05:24;;;;;;;4.68;2.58;;;;;;;23.19;60.45;100344.97;4407106;32;20394;-85
2023/05/19 08:07:49;;;;;;;3.58;3.25;;;;;;;23.25;60.44;100344.50;4420174;32;20089;-85
2023/05/19 08:10:15;;;;;;;5.40;3.53;;;;;;;23.40;60.44;100342.47;4407662;32;20131;-85
2023/05/19 08:12:40;;;;;;;5.03;2.78;;;;;;;23.26;60.44;100343.53;4408986;32;20090;-85
2023/05/19 08:15:06;;;;;;;4.68;3.05;;;;;;;23.28;60.44;100338.97;4407608;32;20207;-87
2023/05/19 08:17:32;;;;;;;4.55;3.60;;;;;;;23.51;60.46;100343.38;4404751;32;20117;-87
2023/05/19 08:19:59;;;;;;;4.60;2.87;;;;;;;23.43;60.45;100340.47;4405074;32;20134;-85
2023/05/19 08:22:24;;;;;;;4.87;2.67;;;;;;;23.56;60.45;100343.03;4404900;32;20360;-87
2023/05/19 08:24:52;;;;;;;3.45;2.50;;;;;;;23.36;60.45;100333.06;4405036;32;20129;-88
2023/05/19 08:27:18;;;;;;;6.03;3.58;;;;;;;23.29;60.44;100335.34;4392308;32;20094;-88
2023/05/19 08:29:43;;;;;;;4.95;3.10;;;;;;;23.38;60.45;100339.94;4405193;32;20166;-87
2023/05/19 08:32:09;;;;;;;4.03;2.80;;;;;;;23.53;60.46;100341.44;4392058;32;20494;-87
2023/05/19 08:34:34;;;;;;;6.32;3.33;;;;;;;23.84;60.47;100342.59;4393435;32;20151;-87
2023/05/19 08:37:00;;;;;;;3.97;2.80;;;;;;;24.05;60.49;100334.75;4405107;32;20125;-87
2023/05/19 08:39:26;;;;;;;6.68;3.42;;;;;;;24.17;60.48;100327.66;4393601;32;20110;-86
2023/05/19 08:41:52;;;;;;;3.58;2.50;;;;;;;24.06;60.49;100331.13;4405110;32;20154;-86
2023/05/19 08:44:18;;;;;;;4.25;2.70;;;;;;;23.74;60.46;100338.13;4404920;32;20175;-87
2023/05/19 08:46:43;;;;;;;5.47;2.92;;;;;;;23.72;60.46;100332.09;4404908;32;20447;-86
2023/05/19 08:49:11;;;;;;;7.85;3.47;;;;;;;23.67;60.46;100335.13;4404720;32;20094;-87
2023/05/19 08:51:49;;;;;;;7.30;3.62;;;;;;;23.86;60.47;100338.00;4404831;32;20177;-87
2023/05/19 08:54:14;;;;;;;4.45;3.37;;;;;;;23.96;60.47;100335.50;4404491;32;20178;-86
2023/05/19 08:56:43;;;;;;;3.53;2.83;;;;;;;23.80;60.47;100340.31;4404707;32;20095;-86
2023/05/19 08:59:08;;;;;;;5.45;3.40;;;;;;;23.92;60.48;100328.72;4403710;32;20254;-86
2023/05/19 09:01:34;;;;;;;3.75;3.28;;;;;;;23.96;60.48;100332.00;4405337;32;20527;-86
2023/05/19 09:03:59;;;;;;;4.18;3.60;;;;;;;24.10;60.48;100321.09;4392829;32;20169;-87
2023/05/19 09:06:25;;;;;;;6.57;3.33;;;;;;;24.33;60.50;100328.13;4417915;32;20147;-85
2023/05/19 09:08:50;;;;;;;3.62;3.15;;;;;;;23.96;60.48;100337.31;4416548;32;20140;-85
2023/05/19 09:11:16;;;;;;;2.90;2.45;;;;;;;24.32;60.50;100329.09;4398525;32;20141;-86
2023/05/19 09:13:41;;;;;;;6.85;5.15;;;;;;;24.45;60.51;100329.81;4392490;32;20156;-86
2023/05/19 09:16:06;;;;;;;3.70;3.08;;;;;;;24.76;60.51;100322.00;4406648;32;21288;-85
2023/05/19 09:18:32;;;;;;;4.30;3.25;;;;;;;24.71;60.52;100311.72;4393210;32;20114;-84
2023/05/19 09:21:01;;;;;;;5.40;3.10;;;;;;;24.26;60.49;100326.06;4406935;32;20098;-88
2023/05/19 09:23:49;;;;;;;3.60;2.50;;;;;;;24.22;60.50;100327.28;4393269;32;20170;-88
2023/05/19 09:26:17;;;;;;;4.25;2.58;;;;;;;24.52;60.51;100322.19;4405305;32;20094;-88
2023/05/19 09:28:43;;;;;;;5.75;2.53;;;;;;;24.86;60.53;100314.13;4405593;32;20121;-88
2023/05/19 09:31:08;;;;;;;3.90;2.85;;;;;;;25.29;60.54;100314.87;4405598;32;20121;-87
2023/05/19 09:33:35;;;;;;;8.15;3.15;;;;;;;25.60;60.56;100312.31;4393444;32;20114;-85
2023/05/19 09:36:02;;;;;;;6.45;2.90;;;;;;;25.91;60.58;100310.53;4418154;32;20156;-84
2023/05/19 09:38:28;;;;;;;3.35;2.90;;;;;;;25.92;60.58;100312.22;4407214;32;20094;-84
2023/05/19 09:40:57;;;;;;;3.60;2.80;;;;;;;25.79;60.58;100304.44;4407253;32;20431;-85
2023/05/19 09:43:23;;;;;;;3.62;2.83;;;;;;;25.80;60.58;100314.13;4392953;32;20152;-85
2023/05/19 09:45:54;;;;;;;6.95;3.15;;;;;;;25.79;60.58;100304.44;4404766;32;23240;-84
2023/05/19 09:48:20;;;;;;;4.12;2.90;;;;;;;25.82;60.57;100300.66;4405491;32;20144;-84
2023/05/19 09:50:45;;;;;;;5.05;2.78;;;;;;;25.71;60.57;100301.59;4417870;32;20106;-83
2023/05/19 09:53:12;;;;;;;9.60;4.68;;;;;;;25.87;60.58;100293.09;4405545;32;20113;-84
2023/05/19 09:55:38;;;;;;;3.85;2.62;;;;;;;25.78;60.58;100296.56;4406873;32;20120;-84
2023/05/19 09:58:04;;;;;;;9.55;3.08;;;;;;;25.83;60.57;100287.19;4405346;32;20121;-84
2023/05/19 10:00:31;;;;;;;4.25;3.03;;;;;;;26.05;60.59;100285.31;4406771;32;20489;-84
2023/05/19 10:02:56;;;;;;;4.18;2.37;;;;;;;26.01;60.59;100279.38;4393125;32;20128;-84
2023/05/19 10:05:22;;;;;;;3.37;2.92;;;;;;;26.15;60.59;100278.19;4406572;32;20142;-84
2023/05/19 10:07:53;;;;;;;3.72;2.53;;;;;;;26.05;60.59;100280.00;4392651;32;20465;-84
2023/05/19 10:10:19;;;;;;;7.47;3.40;;;;;;;25.95;60.58;100277.25;4406168;32;20494;-84
2023/05/19 10:12:45;;;;;;;4.50;2.25;;;;;;;25.83;60.57;100273.03;4406434;32;20127;-83
2023/05/19 10:15:15;;;;;;;5.62;2.47;;;;;;;25.96;60.58;100265.62;4392790;32;20153;-84
2023/05/19 10:17:42;;;;;;;3.45;2.78;;;;;;;25.70;60.58;100282.06;4405560;32;20116;-84
2023/05/19 10:20:09;;;;;;;3.85;2.78;;;;;;;25.60;60.56;100272.31;4418005;32;20126;-84
2023/05/19 10:22:35;;;;;;;5.22;2.58;;;;;;;25.26;60.55;100272.53;4418204;32;20114;-84
2023/05/19 10:25:01;;;;;;;2.97;2.47;;;;;;;25.39;60.56;100273.19;4405406;32;20173;-84
2023/05/19 10:27:27;;;;;;;4.25;2.50;;;;;;;25.60;60.56;100269.66;4418206;32;20130;-84
2023/05/19 10:29:52;;;;;;;4.82;2.78;;;;;;;25.59;60.56;100267.97;4417844;32;20110;-84
2023/05/19 10:32:23;;;;;;;6.15;3.25;;;;;;;25.60;60.56;100265.16;4405419;32;20160;-85
2023/05/19 10:35:16;;;;;;;4.30;3.40;;;;;;;25.26;60.55;100269.84;4417723;32;20423;-86
2023/05/19 10:37:45;;;;;;;3.53;2.55;;;;;;;25.72;60.57;100263.28;4406551;32;20126;-85
2023/05/19 10:40:32;;;;;;;5.95;2.53;;;;;;;25.67;60.57;100262.84;4405125;32;20118;-84
2023/05/19 10:43:24;;;;;;;6.07;2.80;;;;;;;25.72;60.58;100263.28;4405187;32;20101;-84
2023/05/19 10:45:51;;;;;;;5.00;2.60;;;;;;;26.17;60.60;100260.22;4416638;32;20082;-85
2023/05/19 10:48:18;;;;;;;5.80;3.08;;;;;;;26.45;60.61;100255.94;4405468;32;20094;-85
2023/05/19 10:50:47;;;;;;;3.62;2.90;;;;;;;26.17;60.60;100249.53;4405978;32;20458;-85
2023/05/19 10:53:14;;;;;;;4.82;3.08;;;;;;;26.49;60.62;100244.84;4407338;32;20098;-85
2023/05/19 10:55:54;;;;;;;5.15;3.10;;;;;;;26.66;60.62;100242.47;4407503;32;20089;-83
2023/05/19 10:58:44;;;;;;;4.40;3.10;;;;;;;26.94;60.63;100238.94;4405755;32;20549;-84
2023/05/19 11:01:17;;;;;;;7.32;3.17;;;;;;;27.35;60.66;100243.13;4406838;32;20132;-84
2023/05/19 11:03:50;;;;;;;3.53;2.67;;;;;;;27.40;60.66;100243.53;4406995;32;20169;-85
2023/05/19 11:06:17;;;;;;;11.73;4.12;;;;;;;27.36;60.66;100243.97;4408279;32;20117;-83
2023/05/19 11:08:43;;;;;;;6.55;3.65;;;;;;;27.44;60.67;100244.09;4409306;32;20125;-85
2023/05/19 11:11:13;;;;;;;5.60;3.30;;;;;;;27.59;60.66;100228.41;4407951;32;20106;-84
2023/05/19 11:13:41;;;;;;;4.80;3.50;;;;;;;27.79;60.68;100224.72;4407985;32;20171;-84
2023/05/19 11:16:08;;;;;;;5.45;3.50;;;;;;;27.80;60.68;100223.72;4407599;32;20226;-85
2023/05/19 11:18:33;;;;;;;4.50;3.28;;;;;;;27.59;60.66;100225.75;4406895;32;20443;-82
2023/05/19 11:21:00;;;;;;;5.32;2.87;;;;;;;27.77;60.68;100222.19;4395146;32;20126;-85
2023/05/19 11:23:26;;;;;;;3.97;3.15;;;;;;;27.86;60.69;100224.97;4395124;32;20560;-84
2023/05/19 11:25:54;;;;;;;6.10;3.20;;;;;;;27.62;60.67;100222.78;4407052;32;20102;-83
2023/05/19 11:28:24;;;;;;;3.78;3.15;;;;;;;27.65;60.67;100228.69;4408038;32;20469;-83
2023/05/19 11:30:50;;;;;;;8.15;4.40;;;;;;;27.60;60.67;100228.28;4408609;32;20813;-83
2023/05/19 11:33:18;;;;;;;6.32;4.25;;;;;;;27.64;60.68;100226.19;4408014;32;20150;-85
2023/05/19 11:35:45;;;;;;;7.50;3.67;;;;;;;27.89;60.68;100219.31;4407324;32;20533;-84
2023/05/19 11:38:10;;;;;;;7.25;3.70;;;;;;;27.99;60.70;100220.13;4408890;32;20466;-84
2023/05/19 11:40:36;;;;;;;5.53;4.00;;;;;;;28.17;60.71;100215.66;4407671;32;20195;-85